createdAt,value
2022-10-31T00:00:14.556Z,93.84
2022-10-31T00:00:48.753Z,93.77
2022-10-31T00:01:40.909Z,93.79
2022-10-31T00:02:12.842Z,93.45
2022-10-31T00:02:44.770Z,92.93
2022-10-31T00:03:18.041Z,93.00
2022-10-31T00:03:50.014Z,93.26
2022-10-31T00:04:21.835Z,93.54
2022-10-31T00:04:53.753Z,93.46
2022-10-31T00:05:25.603Z,93.38
2022-10-31T00:05:57.759Z,93.43
2022-10-31T00:06:29.650Z,93.46
2022-10-31T00:07:01.466Z,93.63
2022-10-31T00:07:33.339Z,93.86
2022-10-31T00:08:05.199Z,93.98
2022-10-31T00:08:37.176Z,93.79
2022-10-31T00:09:10.999Z,93.62
2022-10-31T00:09:42.831Z,93.57
2022-10-31T00:10:14.757Z,93.70
2022-10-31T00:10:47.548Z,94.39
2022-10-31T00:11:19.839Z,94.35
2022-10-31T00:11:51.705Z,94.11
2022-10-31T00:12:23.536Z,93.73
2022-10-31T00:12:55.356Z,93.63
2022-10-31T00:13:27.266Z,93.33
2022-10-31T00:14:00.128Z,93.14
2022-10-31T00:14:32.206Z,93.04
2022-10-31T00:15:04.271Z,93.41
2022-10-31T00:15:36.787Z,93.39
2022-10-31T00:16:18.889Z,93.76
2022-10-31T00:16:51.010Z,94.40
2022-10-31T00:17:22.867Z,94.30
2022-10-31T00:17:54.689Z,93.95
2022-10-31T00:18:26.547Z,94.10
2022-10-31T00:19:01.331Z,94.01
2022-10-31T00:19:33.156Z,93.91
2022-10-31T00:20:05.403Z,94.04
2022-10-31T00:20:38.788Z,94.00
2022-10-31T00:21:10.982Z,94.00
2022-10-31T00:21:42.862Z,93.78
2022-10-31T00:22:15.033Z,93.81
2022-10-31T00:22:46.859Z,94.18
2022-10-31T00:23:18.664Z,94.21
2022-10-31T00:23:50.840Z,93.72
2022-10-31T00:24:22.641Z,93.51
2022-10-31T00:24:54.458Z,93.55
2022-10-31T00:25:27.007Z,93.87
2022-10-31T00:26:06.363Z,94.20
2022-10-31T00:26:38.231Z,94.52
2022-10-31T00:27:10.062Z,94.28
2022-10-31T00:27:42.300Z,94.24
2022-10-31T00:28:14.257Z,93.75
2022-10-31T00:28:46.463Z,93.24
2022-10-31T00:29:18.385Z,92.83
2022-10-31T00:29:50.236Z,92.66
2022-10-31T00:30:22.100Z,92.70
2022-10-31T00:30:54.082Z,92.71
2022-10-31T00:31:25.962Z,92.60
2022-10-31T00:31:57.840Z,92.45
2022-10-31T00:32:31.169Z,92.50
2022-10-31T00:33:06.176Z,92.81
2022-10-31T00:33:39.772Z,92.73
2022-10-31T00:34:11.610Z,92.38
2022-10-31T00:34:43.448Z,92.29
2022-10-31T00:35:15.358Z,92.18
2022-10-31T00:35:51.808Z,92.31
2022-10-31T00:36:23.646Z,92.76
2022-10-31T00:36:55.472Z,93.16
2022-10-31T00:37:28.164Z,93.36
2022-10-31T00:38:00.283Z,93.71
2022-10-31T00:38:32.655Z,93.86
2022-10-31T00:39:04.586Z,93.81
2022-10-31T00:39:37.201Z,93.58
2022-10-31T00:40:09.786Z,93.60
2022-10-31T00:40:41.620Z,93.40
2022-10-31T00:41:15.710Z,93.31
2022-10-31T00:41:47.586Z,93.34
2022-10-31T00:42:19.413Z,93.63
2022-10-31T00:42:51.320Z,93.75
2022-10-31T00:43:23.384Z,93.77
2022-10-31T00:43:55.563Z,93.71
2022-10-31T00:44:27.421Z,93.69
2022-10-31T00:44:59.335Z,93.54
2022-10-31T00:45:31.859Z,93.52
2022-10-31T00:46:03.942Z,93.51
2022-10-31T00:46:35.762Z,93.74
2022-10-31T00:47:07.683Z,93.58
2022-10-31T00:47:39.594Z,93.44
2022-10-31T00:48:11.602Z,93.13
2022-10-31T00:48:43.566Z,92.97
2022-10-31T00:49:16.050Z,93.28
2022-10-31T00:49:47.869Z,93.68
2022-10-31T00:50:19.794Z,93.79
2022-10-31T00:50:51.656Z,93.60
2022-10-31T00:51:23.720Z,93.48
2022-10-31T00:51:55.613Z,93.47
2022-10-31T00:52:27.489Z,93.67
2022-10-31T00:52:59.564Z,93.69
2022-10-31T00:53:31.764Z,93.79
2022-10-31T00:54:04.067Z,93.57
2022-10-31T00:54:36.229Z,93.40
2022-10-31T00:55:08.365Z,93.53
2022-10-31T00:55:40.243Z,93.99
2022-10-31T00:56:12.185Z,94.00
2022-10-31T00:56:44.072Z,93.93
2022-10-31T00:57:15.885Z,93.84
2022-10-31T00:57:48.755Z,93.57
2022-10-31T00:58:21.903Z,93.32
2022-10-31T00:58:53.771Z,93.30
2022-10-31T00:59:25.955Z,93.75
2022-10-31T00:59:58.156Z,94.07
2022-10-31T01:00:30.321Z,94.00
2022-10-31T01:01:02.302Z,93.84
2022-10-31T01:01:34.287Z,94.07
2022-10-31T01:02:06.485Z,94.30
2022-10-31T01:02:39.008Z,94.21
2022-10-31T01:03:11.661Z,94.24
2022-10-31T01:03:43.816Z,93.79
2022-10-31T01:04:16.245Z,93.60
2022-10-31T01:04:48.127Z,93.76
2022-10-31T01:05:20.582Z,93.78
2022-10-31T01:06:07.863Z,94.06
2022-10-31T01:06:39.734Z,93.99
2022-10-31T01:07:13.242Z,93.89
2022-10-31T01:07:45.133Z,93.70
2022-10-31T01:08:17.013Z,93.44
2022-10-31T01:08:49.392Z,93.40
2022-10-31T01:09:21.255Z,93.51
2022-10-31T01:09:53.656Z,93.61
2022-10-31T01:10:26.053Z,93.97
2022-10-31T01:11:06.830Z,94.34
2022-10-31T01:11:38.748Z,93.70
2022-10-31T01:12:11.406Z,93.44
2022-10-31T01:12:46.977Z,93.29
2022-10-31T01:13:19.162Z,93.28
2022-10-31T01:13:53.441Z,93.39
2022-10-31T01:14:25.261Z,93.32
2022-10-31T01:14:57.102Z,93.18
2022-10-31T01:15:29.237Z,93.34
2022-10-31T01:16:02.159Z,93.51
2022-10-31T01:16:34.063Z,93.53
2022-10-31T01:17:05.905Z,93.54
2022-10-31T01:17:37.875Z,93.58
2022-10-31T01:18:09.722Z,93.56
2022-10-31T01:18:42.314Z,93.46
2022-10-31T01:19:14.223Z,93.73
2022-10-31T01:19:46.396Z,93.65
2022-10-31T01:20:18.892Z,93.39
2022-10-31T01:21:11.027Z,93.22
2022-10-31T01:21:42.937Z,93.38
2022-10-31T01:22:14.937Z,93.25
2022-10-31T01:22:46.829Z,93.05
2022-10-31T01:23:18.712Z,93.14
2022-10-31T01:23:51.307Z,93.34
2022-10-31T01:24:23.369Z,93.57
2022-10-31T01:24:55.204Z,93.66
2022-10-31T01:25:27.434Z,93.75
2022-10-31T01:26:05.080Z,93.77
2022-10-31T01:26:37.821Z,93.63
2022-10-31T01:27:09.652Z,93.33
2022-10-31T01:27:41.602Z,93.32
2022-10-31T01:28:13.481Z,93.25
2022-10-31T01:28:48.407Z,93.26
2022-10-31T01:29:20.260Z,94.16
2022-10-31T01:29:52.143Z,94.26
2022-10-31T01:30:24.008Z,94.54
2022-10-31T01:30:55.925Z,95.70
2022-10-31T01:31:31.543Z,96.09
2022-10-31T01:32:03.522Z,96.34
2022-10-31T01:32:35.414Z,96.18
2022-10-31T01:33:07.288Z,95.46
2022-10-31T01:33:39.368Z,95.04
2022-10-31T01:34:16.293Z,94.86
2022-10-31T01:34:48.142Z,94.84
2022-10-31T01:35:19.957Z,95.01
2022-10-31T01:35:51.888Z,94.93
2022-10-31T01:36:32.640Z,94.68
2022-10-31T01:37:04.816Z,94.72
2022-10-31T01:37:37.597Z,94.61
2022-10-31T01:38:10.003Z,94.53
2022-10-31T01:38:41.970Z,94.37
2022-10-31T01:39:16.468Z,94.50
2022-10-31T01:39:51.395Z,94.71
2022-10-31T01:40:23.442Z,94.73
2022-10-31T01:40:55.397Z,95.16
2022-10-31T01:41:29.987Z,95.10
2022-10-31T01:42:01.828Z,94.66
2022-10-31T01:42:33.983Z,94.30
2022-10-31T01:43:05.879Z,94.45
2022-10-31T01:44:23.716Z,94.43
2022-10-31T01:44:59.297Z,95.96
2022-10-31T01:45:31.261Z,96.00
2022-10-31T01:46:03.305Z,95.89
2022-10-31T01:46:42.459Z,95.60
2022-10-31T01:47:20.751Z,95.11
2022-10-31T01:47:52.964Z,94.47
2022-10-31T01:48:29.036Z,94.00
2022-10-31T01:49:06.526Z,93.66
2022-10-31T01:49:52.138Z,93.45
2022-10-31T01:50:32.978Z,93.61
2022-10-31T01:51:06.170Z,93.50
2022-10-31T01:51:46.089Z,93.58
2022-10-31T01:52:33.851Z,93.91
2022-10-31T01:53:09.238Z,94.23
2022-10-31T01:53:42.943Z,93.91
2022-10-31T01:54:19.241Z,93.77
2022-10-31T01:54:59.438Z,93.66
2022-10-31T01:55:35.596Z,93.37
2022-10-31T01:56:08.613Z,93.52
2022-10-31T01:56:49.793Z,93.33
2022-10-31T01:57:22.971Z,93.20
2022-10-31T01:58:01.432Z,92.95
2022-10-31T01:58:34.263Z,92.98
2022-10-31T01:59:10.084Z,92.92
2022-10-31T01:59:48.458Z,93.08
2022-10-31T02:00:22.079Z,93.12
2022-10-31T02:01:01.771Z,93.16
2022-10-31T02:01:37.791Z,93.30
2022-10-31T02:02:10.001Z,93.32
2022-10-31T02:02:43.060Z,93.46
2022-10-31T02:03:17.257Z,94.17
2022-10-31T02:03:49.806Z,94.64
2022-10-31T02:04:24.703Z,94.51
2022-10-31T02:04:58.210Z,94.97
2022-10-31T02:05:31.389Z,95.09
2022-10-31T02:06:05.873Z,94.80
2022-10-31T02:06:48.433Z,94.39
2022-10-31T02:07:33.820Z,94.79
2022-10-31T02:08:15.393Z,94.43
2022-10-31T02:08:47.373Z,93.82
2022-10-31T02:09:24.386Z,93.66
2022-10-31T02:09:57.891Z,94.19
2022-10-31T02:10:32.925Z,94.53
2022-10-31T02:11:08.396Z,95.50
2022-10-31T02:11:43.937Z,96.07
2022-10-31T02:12:18.113Z,95.95
2022-10-31T02:12:56.265Z,95.54
2022-10-31T02:13:30.254Z,95.06
2022-10-31T02:14:03.605Z,95.22
2022-10-31T02:14:37.281Z,94.94
2022-10-31T02:15:10.173Z,95.02
2022-10-31T02:15:45.562Z,94.99
2022-10-31T02:16:17.891Z,94.76
2022-10-31T02:16:49.778Z,94.61
2022-10-31T02:17:21.662Z,94.49
2022-10-31T02:17:53.821Z,94.12
2022-10-31T02:18:29.705Z,93.59
2022-10-31T02:19:02.252Z,93.52
2022-10-31T02:19:43.136Z,93.62
2022-10-31T02:20:24.606Z,93.46
2022-10-31T02:21:26.969Z,93.46
2022-10-31T02:22:10.497Z,93.62
2022-10-31T02:23:01.397Z,94.40
2022-10-31T02:24:05.289Z,94.47
2022-10-31T02:24:44.038Z,94.16
2022-10-31T02:25:21.775Z,94.60
2022-10-31T02:26:14.143Z,96.20
2022-10-31T02:27:16.153Z,96.57
2022-10-31T02:28:14.287Z,96.21
2022-10-31T02:29:16.707Z,94.83
2022-10-31T02:29:53.034Z,94.42
2022-10-31T02:30:29.907Z,94.48
2022-10-31T02:31:06.771Z,94.83
2022-10-31T02:32:03.151Z,94.09
2022-10-31T02:33:11.992Z,94.71
2022-10-31T02:34:23.187Z,95.30
2022-10-31T02:34:58.139Z,94.53
2022-10-31T02:35:35.813Z,95.02
2022-10-31T02:36:29.519Z,95.36
2022-10-31T02:37:24.404Z,95.60
2022-10-31T02:38:08.224Z,96.40
2022-10-31T02:38:51.910Z,97.01
2022-10-31T02:39:32.942Z,97.41
2022-10-31T02:40:28.067Z,97.54
2022-10-31T02:41:33.857Z,97.10
2022-10-31T02:42:21.012Z,96.85
2022-10-31T02:44:01.647Z,96.09
2022-10-31T02:45:00.153Z,95.80
2022-10-31T02:45:41.083Z,95.65
2022-10-31T02:46:40.873Z,95.43
2022-10-31T02:47:19.891Z,95.48
2022-10-31T02:47:56.727Z,95.06
2022-10-31T02:48:31.358Z,95.00
2022-10-31T02:49:17.630Z,94.84
2022-10-31T02:49:58.491Z,94.68
2022-10-31T02:50:35.197Z,94.80
2022-10-31T02:51:11.047Z,95.26
2022-10-31T02:51:44.355Z,95.45
2022-10-31T02:52:28.638Z,95.00
2022-10-31T02:53:05.089Z,94.74
2022-10-31T02:53:38.664Z,94.75
2022-10-31T02:54:27.319Z,94.40
2022-10-31T02:54:59.191Z,94.32
2022-10-31T02:55:30.995Z,94.13
2022-10-31T02:56:07.788Z,94.35
2022-10-31T02:56:39.922Z,94.59
2022-10-31T02:57:13.967Z,94.89
2022-10-31T02:57:45.826Z,94.72
2022-10-31T02:58:24.085Z,94.36
2022-10-31T02:59:03.457Z,93.88
2022-10-31T02:59:40.250Z,93.54
2022-10-31T03:00:12.710Z,93.28
2022-10-31T03:00:52.150Z,93.21
2022-10-31T03:01:45.327Z,93.33
2022-10-31T03:02:23.813Z,93.60
2022-10-31T03:03:15.903Z,93.65
2022-10-31T03:04:03.008Z,94.24
2022-10-31T03:04:37.611Z,94.23
2022-10-31T03:05:37.478Z,93.79
2022-10-31T03:06:29.418Z,93.45
2022-10-31T03:07:30.191Z,93.08
2022-10-31T03:08:12.870Z,93.72
2022-10-31T03:09:08.469Z,93.52
2022-10-31T03:09:56.107Z,93.20
2022-10-31T03:10:34.071Z,93.07
2022-10-31T03:11:08.509Z,93.31
2022-10-31T03:12:13.273Z,93.87
2022-10-31T03:12:48.830Z,93.92
2022-10-31T03:13:40.350Z,94.23
2022-10-31T03:14:22.049Z,94.31
2022-10-31T03:15:13.715Z,93.79
2022-10-31T03:15:50.797Z,93.51
2022-10-31T03:16:30.315Z,93.80
2022-10-31T03:17:09.462Z,93.92
2022-10-31T03:17:54.620Z,94.01
2022-10-31T03:18:35.379Z,94.50
2022-10-31T03:19:11.129Z,94.36
2022-10-31T03:19:48.858Z,94.54
2022-10-31T03:20:27.256Z,94.75
2022-10-31T03:21:06.913Z,94.50
2022-10-31T03:21:45.724Z,94.74
2022-10-31T03:22:24.346Z,94.88
2022-10-31T03:22:57.709Z,94.89
2022-10-31T03:23:33.094Z,94.84
2022-10-31T03:24:07.816Z,94.56
2022-10-31T03:24:40.689Z,94.13
2022-10-31T03:25:14.555Z,94.29
2022-10-31T03:25:48.598Z,94.46
2022-10-31T03:26:23.233Z,94.21
2022-10-31T03:26:58.690Z,94.02
2022-10-31T03:27:34.676Z,93.89
2022-10-31T03:28:09.986Z,93.58
2022-10-31T03:28:50.692Z,93.24
2022-10-31T03:29:28.801Z,93.34
2022-10-31T03:30:05.540Z,93.50
2022-10-31T03:30:42.095Z,92.92
2022-10-31T03:31:19.411Z,92.58
2022-10-31T03:31:54.751Z,92.81
2022-10-31T03:32:38.954Z,93.04
2022-10-31T03:33:18.341Z,93.51
2022-10-31T03:33:53.410Z,93.51
2022-10-31T03:34:26.666Z,93.91
2022-10-31T03:35:02.483Z,93.92
2022-10-31T03:35:36.671Z,93.98
2022-10-31T03:36:11.943Z,93.91
2022-10-31T03:36:45.655Z,93.66
2022-10-31T03:37:20.456Z,94.07
2022-10-31T03:37:55.287Z,94.40
2022-10-31T03:38:29.141Z,94.61
2022-10-31T03:39:05.425Z,94.66
2022-10-31T03:39:39.998Z,94.47
2022-10-31T03:40:14.578Z,94.68
2022-10-31T03:40:49.395Z,94.60
2022-10-31T03:41:28.700Z,94.60
2022-10-31T03:42:25.492Z,95.42
2022-10-31T03:43:08.685Z,96.07
2022-10-31T03:43:47.163Z,96.01
2022-10-31T03:44:22.084Z,95.61
2022-10-31T03:45:08.940Z,95.38
2022-10-31T03:45:44.990Z,94.93
2022-10-31T03:46:17.397Z,94.45
2022-10-31T03:46:49.891Z,94.53
2022-10-31T03:47:22.200Z,94.56
2022-10-31T03:47:55.393Z,94.73
2022-10-31T03:48:27.518Z,95.09
2022-10-31T03:49:00.516Z,95.45
2022-10-31T03:49:34.915Z,95.42
2022-10-31T03:50:09.695Z,95.02
2022-10-31T03:50:51.974Z,94.00
2022-10-31T03:51:55.988Z,94.28
2022-10-31T03:52:37.213Z,94.61
2022-10-31T03:53:21.684Z,94.83
2022-10-31T03:54:02.408Z,94.60
2022-10-31T03:54:44.164Z,94.64
2022-10-31T03:55:16.471Z,94.82
2022-10-31T03:55:57.798Z,94.92
2022-10-31T03:56:48.831Z,94.84
2022-10-31T03:57:43.994Z,94.96
2022-10-31T03:58:54.179Z,95.26
2022-10-31T03:59:33.283Z,94.98
2022-10-31T04:00:14.919Z,94.38
2022-10-31T04:00:53.373Z,94.43
2022-10-31T04:01:28.595Z,94.46
2022-10-31T04:02:07.169Z,94.24
2022-10-31T04:02:44.309Z,94.20
2022-10-31T04:03:27.192Z,94.29
2022-10-31T04:04:00.316Z,94.72
2022-10-31T04:04:33.270Z,94.48
2022-10-31T04:05:06.810Z,93.92
2022-10-31T04:05:41.764Z,94.48
2022-10-31T04:06:16.889Z,94.98
2022-10-31T04:06:51.527Z,95.51
2022-10-31T04:07:29.382Z,95.90
2022-10-31T04:08:04.272Z,95.93
2022-10-31T04:08:43.602Z,96.04
2022-10-31T04:09:20.570Z,96.27
2022-10-31T04:09:54.670Z,96.26
2022-10-31T04:10:32.930Z,95.95
2022-10-31T04:11:07.726Z,95.94
2022-10-31T04:11:51.984Z,95.99
2022-10-31T04:12:26.989Z,95.87
2022-10-31T04:13:05.999Z,95.75
2022-10-31T04:13:40.329Z,95.69
2022-10-31T04:14:13.245Z,95.02
2022-10-31T04:14:47.851Z,94.93
2022-10-31T04:15:21.069Z,94.91
2022-10-31T04:15:55.992Z,94.42
2022-10-31T04:16:28.553Z,94.59
2022-10-31T04:17:04.636Z,94.65
2022-10-31T04:17:43.170Z,94.89
2022-10-31T04:18:15.652Z,94.99
2022-10-31T04:18:47.665Z,95.23
2022-10-31T04:19:21.575Z,95.44
2022-10-31T04:19:53.709Z,95.78
2022-10-31T04:20:40.069Z,96.45
2022-10-31T04:21:12.051Z,96.90
2022-10-31T04:21:44.424Z,96.65
2022-10-31T04:22:16.408Z,96.46
2022-10-31T04:22:49.383Z,96.37
2022-10-31T04:23:25.219Z,96.08
2022-10-31T04:23:57.979Z,95.75
2022-10-31T04:24:30.128Z,95.47
2022-10-31T04:25:02.762Z,95.15
2022-10-31T04:25:34.609Z,94.26
2022-10-31T04:26:06.494Z,93.78
2022-10-31T04:26:38.595Z,93.44
2022-10-31T04:27:10.573Z,93.34
2022-10-31T04:27:43.116Z,93.55
2022-10-31T04:28:15.453Z,93.99
2022-10-31T04:28:48.610Z,94.75
2022-10-31T04:29:20.505Z,95.38
2022-10-31T04:29:52.529Z,96.08
2022-10-31T04:30:24.460Z,96.44
2022-10-31T04:30:56.415Z,96.25
2022-10-31T04:31:28.557Z,96.35
2022-10-31T04:32:00.471Z,96.57
2022-10-31T04:32:32.722Z,95.96
2022-10-31T04:33:04.742Z,95.92
2022-10-31T04:33:37.374Z,96.53
2022-10-31T04:34:09.727Z,96.94
2022-10-31T04:34:41.555Z,96.78
2022-10-31T04:35:13.471Z,96.68
2022-10-31T04:35:46.576Z,95.69
2022-10-31T04:36:18.477Z,95.33
2022-10-31T04:36:50.381Z,95.05
2022-10-31T04:37:22.874Z,95.00
2022-10-31T04:37:54.982Z,95.17
2022-10-31T04:38:26.859Z,95.42
2022-10-31T04:38:59.092Z,95.62
2022-10-31T04:39:31.719Z,95.53
2022-10-31T04:40:05.768Z,95.48
2022-10-31T04:40:41.331Z,95.35
2022-10-31T04:41:14.373Z,95.54
2022-10-31T04:41:46.839Z,95.30
2022-10-31T04:42:18.847Z,95.74
2022-10-31T04:42:50.777Z,95.68
2022-10-31T04:43:22.861Z,95.53
2022-10-31T04:43:55.257Z,96.05
2022-10-31T04:44:27.511Z,95.91
2022-10-31T04:44:59.592Z,95.45
2022-10-31T04:45:31.891Z,95.45
2022-10-31T04:46:05.194Z,95.67
2022-10-31T04:46:37.310Z,95.75
2022-10-31T04:47:09.361Z,95.79
2022-10-31T04:47:41.772Z,95.81
2022-10-31T04:48:13.689Z,95.79
2022-10-31T04:48:46.460Z,95.82
2022-10-31T04:49:18.328Z,95.92
2022-10-31T04:49:50.527Z,95.73
2022-10-31T04:50:22.418Z,94.70
2022-10-31T04:50:54.292Z,94.33
2022-10-31T04:51:26.191Z,94.73
2022-10-31T04:51:58.369Z,95.38
2022-10-31T04:52:30.259Z,95.62
2022-10-31T04:53:02.559Z,95.83
2022-10-31T04:53:35.508Z,95.93
2022-10-31T04:54:10.549Z,95.33
2022-10-31T04:54:45.520Z,95.50
2022-10-31T04:55:19.599Z,96.48
2022-10-31T04:56:00.854Z,96.83
2022-10-31T04:56:37.456Z,97.43
2022-10-31T04:57:10.107Z,97.72
2022-10-31T04:57:47.802Z,97.92
2022-10-31T04:58:20.009Z,97.61
2022-10-31T04:58:51.955Z,97.24
2022-10-31T04:59:24.087Z,96.86
2022-10-31T04:59:56.400Z,97.02
2022-10-31T05:00:29.364Z,97.06
2022-10-31T05:01:01.460Z,97.08
2022-10-31T05:01:33.597Z,97.27
2022-10-31T05:02:06.027Z,97.16
2022-10-31T05:02:46.391Z,96.92
2022-10-31T05:03:18.224Z,96.52
2022-10-31T05:03:50.081Z,96.33
2022-10-31T05:04:22.426Z,96.26
2022-10-31T05:04:54.269Z,96.23
2022-10-31T05:05:31.458Z,95.69
2022-10-31T05:06:05.574Z,95.45
2022-10-31T05:06:37.469Z,96.41
2022-10-31T05:07:09.334Z,96.77
2022-10-31T05:07:46.761Z,96.65
2022-10-31T05:08:18.734Z,96.24
2022-10-31T05:08:51.619Z,96.09
2022-10-31T05:09:23.578Z,95.61
2022-10-31T05:09:56.217Z,95.52
2022-10-31T05:10:30.820Z,95.27
2022-10-31T05:11:04.983Z,94.89
2022-10-31T05:11:37.210Z,94.66
2022-10-31T05:12:12.223Z,94.24
2022-10-31T05:12:49.053Z,94.23
2022-10-31T05:13:32.064Z,94.34
2022-10-31T05:14:07.337Z,94.47
2022-10-31T05:14:46.151Z,94.50
2022-10-31T05:15:27.388Z,93.80
2022-10-31T05:16:02.657Z,93.35
2022-10-31T05:16:37.009Z,93.69
2022-10-31T05:17:12.146Z,94.25
2022-10-31T05:17:46.644Z,94.27
2022-10-31T05:18:21.424Z,94.11
2022-10-31T05:18:56.189Z,94.44
2022-10-31T05:19:29.012Z,94.79
2022-10-31T05:20:02.170Z,94.89
2022-10-31T05:20:40.596Z,93.97
2022-10-31T05:21:13.730Z,93.75
2022-10-31T05:21:47.072Z,94.03
2022-10-31T05:22:18.969Z,94.37
2022-10-31T05:22:52.793Z,94.75
2022-10-31T05:23:24.855Z,94.85
2022-10-31T05:23:57.263Z,95.30
2022-10-31T05:24:29.486Z,95.28
2022-10-31T05:25:01.613Z,95.17
2022-10-31T05:25:34.204Z,95.22
2022-10-31T05:26:08.207Z,95.15
2022-10-31T05:26:40.102Z,95.03
2022-10-31T05:27:12.304Z,95.13
2022-10-31T05:27:46.714Z,95.75
2022-10-31T05:28:18.758Z,95.99
2022-10-31T05:28:50.850Z,96.57
2022-10-31T05:29:22.808Z,96.06
2022-10-31T05:29:54.743Z,95.08
2022-10-31T05:30:30.939Z,95.04
2022-10-31T05:31:03.348Z,94.25
2022-10-31T05:31:36.677Z,93.98
2022-10-31T05:32:09.094Z,93.98
2022-10-31T05:32:46.929Z,93.96
2022-10-31T05:33:20.537Z,93.81
2022-10-31T05:33:55.144Z,93.68
2022-10-31T05:34:28.919Z,93.61
2022-10-31T05:35:02.050Z,93.61
2022-10-31T05:35:35.885Z,93.91
2022-10-31T05:36:08.918Z,94.15
2022-10-31T05:36:41.079Z,94.44
2022-10-31T05:37:14.005Z,94.72
2022-10-31T05:37:47.273Z,94.72
2022-10-31T05:38:19.235Z,94.71
2022-10-31T05:38:51.308Z,94.54
2022-10-31T05:39:25.433Z,94.80
2022-10-31T05:40:01.173Z,95.25
2022-10-31T05:40:35.571Z,94.71
2022-10-31T05:41:07.627Z,94.55
2022-10-31T05:41:39.707Z,94.28
2022-10-31T05:42:11.796Z,94.21
2022-10-31T05:42:44.654Z,94.54
2022-10-31T05:43:18.215Z,94.35
2022-10-31T05:43:50.110Z,94.27
2022-10-31T05:44:23.047Z,94.19
2022-10-31T05:44:57.166Z,93.90
2022-10-31T05:45:29.147Z,93.35
2022-10-31T05:46:01.227Z,93.59
2022-10-31T05:47:15.294Z,94.21
2022-10-31T05:47:59.956Z,94.26
2022-10-31T05:48:35.885Z,94.38
2022-10-31T05:49:12.225Z,94.63
2022-10-31T05:49:47.237Z,94.85
2022-10-31T05:50:23.481Z,95.00
2022-10-31T05:50:55.672Z,95.08
2022-10-31T05:51:29.640Z,95.18
2022-10-31T05:52:01.556Z,95.12
2022-10-31T05:52:36.712Z,94.98
2022-10-31T05:53:09.248Z,94.88
2022-10-31T05:53:41.579Z,94.75
2022-10-31T05:54:16.009Z,94.70
2022-10-31T05:54:49.014Z,94.26
2022-10-31T05:55:20.910Z,94.18
2022-10-31T05:55:55.153Z,93.96
2022-10-31T05:56:27.295Z,93.89
2022-10-31T05:56:59.900Z,94.03
2022-10-31T05:57:33.841Z,94.26
2022-10-31T05:58:05.847Z,94.48
2022-10-31T05:58:38.204Z,94.59
2022-10-31T05:59:10.706Z,94.29
2022-10-31T05:59:44.047Z,94.04
2022-10-31T06:00:16.257Z,93.97
2022-10-31T06:00:54.164Z,94.13
2022-10-31T06:01:26.522Z,94.17
2022-10-31T06:01:58.801Z,94.32
2022-10-31T06:02:35.380Z,94.45
2022-10-31T06:03:10.915Z,94.57
2022-10-31T06:03:43.140Z,94.69
2022-10-31T06:04:15.225Z,94.81
2022-10-31T06:04:48.179Z,94.95
2022-10-31T06:05:20.092Z,95.15
2022-10-31T06:05:55.043Z,95.42
2022-10-31T06:06:28.464Z,95.25
2022-10-31T06:07:00.347Z,95.21
2022-10-31T06:07:36.354Z,95.05
2022-10-31T06:08:08.639Z,94.84
2022-10-31T06:08:41.885Z,94.67
2022-10-31T06:09:15.473Z,94.46
2022-10-31T06:09:48.170Z,94.41
2022-10-31T06:10:21.943Z,94.41
2022-10-31T06:10:56.741Z,94.35
2022-10-31T06:11:30.873Z,93.13
2022-10-31T06:12:07.635Z,92.71
2022-10-31T06:12:43.616Z,93.46
2022-10-31T06:13:16.111Z,94.97
2022-10-31T06:13:48.397Z,94.99
2022-10-31T06:14:20.984Z,95.26
2022-10-31T06:14:55.082Z,96.56
2022-10-31T06:15:26.971Z,96.60
2022-10-31T06:16:00.061Z,96.37
2022-10-31T06:16:33.597Z,96.08
2022-10-31T06:17:06.524Z,96.33
2022-10-31T06:17:41.191Z,96.33
2022-10-31T06:18:14.303Z,96.23
2022-10-31T06:18:50.681Z,96.09
2022-10-31T06:19:23.138Z,96.09
2022-10-31T06:19:54.995Z,96.20
2022-10-31T06:20:27.688Z,96.27
2022-10-31T06:21:00.151Z,96.12
2022-10-31T06:21:32.669Z,96.09
2022-10-31T06:22:04.579Z,96.14
2022-10-31T06:22:37.475Z,95.45
2022-10-31T06:23:09.317Z,95.68
2022-10-31T06:23:41.197Z,95.92
2022-10-31T06:24:19.167Z,96.11
2022-10-31T06:24:52.481Z,96.48
2022-10-31T06:25:25.229Z,95.47
2022-10-31T06:25:58.282Z,95.16
2022-10-31T06:26:30.152Z,95.14
2022-10-31T06:27:02.346Z,95.29
2022-10-31T06:27:34.238Z,95.61
2022-10-31T06:28:09.010Z,95.76
2022-10-31T06:28:41.559Z,95.59
2022-10-31T06:29:14.872Z,95.37
2022-10-31T06:29:49.046Z,95.20
2022-10-31T06:30:22.686Z,95.49
2022-10-31T06:30:54.845Z,95.48
2022-10-31T06:31:26.826Z,95.70
2022-10-31T06:31:58.756Z,95.72
2022-10-31T06:32:31.027Z,96.04
2022-10-31T06:33:05.430Z,96.28
2022-10-31T06:33:38.649Z,96.09
2022-10-31T06:34:10.516Z,96.49
2022-10-31T06:34:43.368Z,96.49
2022-10-31T06:35:15.470Z,96.52
2022-10-31T06:35:48.313Z,96.15
2022-10-31T06:36:21.468Z,95.40
2022-10-31T06:36:53.587Z,94.69
2022-10-31T06:37:25.820Z,94.38
2022-10-31T06:37:59.235Z,94.55
2022-10-31T06:38:32.105Z,94.66
2022-10-31T06:39:04.171Z,94.78
2022-10-31T06:39:36.063Z,94.69
2022-10-31T06:40:08.394Z,94.44
2022-10-31T06:40:41.786Z,94.39
2022-10-31T06:41:19.733Z,94.55
2022-10-31T06:41:52.110Z,95.10
2022-10-31T06:42:24.595Z,95.21
2022-10-31T06:43:03.205Z,95.35
2022-10-31T06:43:36.127Z,95.61
2022-10-31T06:44:09.279Z,95.67
2022-10-31T06:44:42.877Z,95.50
2022-10-31T06:45:21.327Z,95.09
2022-10-31T06:45:58.283Z,94.70
2022-10-31T06:46:30.313Z,94.48
2022-10-31T06:47:03.617Z,93.88
2022-10-31T06:47:50.846Z,93.69
2022-10-31T06:48:30.777Z,93.75
2022-10-31T06:49:05.963Z,93.79
2022-10-31T06:49:38.425Z,93.54
2022-10-31T06:50:16.428Z,93.86
2022-10-31T06:50:48.522Z,93.92
2022-10-31T06:51:20.487Z,93.96
2022-10-31T06:51:53.039Z,94.00
2022-10-31T06:52:24.927Z,94.13
2022-10-31T06:52:59.500Z,94.12
2022-10-31T06:53:31.446Z,94.78
2022-10-31T06:54:03.721Z,94.97
2022-10-31T06:54:36.229Z,95.10
2022-10-31T06:55:08.476Z,95.16
2022-10-31T06:55:41.371Z,94.94
2022-10-31T06:56:13.529Z,94.79
2022-10-31T06:56:49.762Z,94.55
2022-10-31T06:57:21.850Z,94.48
2022-10-31T06:57:58.894Z,94.30
2022-10-31T06:58:34.877Z,94.97
2022-10-31T06:59:07.413Z,95.33
2022-10-31T06:59:41.110Z,95.72
2022-10-31T07:00:15.136Z,95.99
2022-10-31T07:00:47.609Z,95.79
2022-10-31T07:01:19.572Z,95.17
2022-10-31T07:01:51.737Z,94.62
2022-10-31T07:02:23.826Z,94.17
2022-10-31T07:03:12.251Z,94.18
2022-10-31T07:03:44.227Z,94.57
2022-10-31T07:04:16.377Z,94.73
2022-10-31T07:04:48.891Z,94.73
2022-10-31T07:05:21.032Z,94.65
2022-10-31T07:05:52.921Z,94.51
2022-10-31T07:06:25.657Z,94.62
2022-10-31T07:06:57.540Z,94.58
2022-10-31T07:07:29.559Z,94.35
2022-10-31T07:08:04.133Z,94.30
2022-10-31T07:08:36.140Z,94.48
2022-10-31T07:09:08.064Z,94.69
2022-10-31T07:09:40.230Z,94.91
2022-10-31T07:10:54.702Z,94.69
2022-10-31T07:11:27.084Z,94.83
2022-10-31T07:12:00.647Z,94.95
2022-10-31T07:12:34.193Z,94.88
2022-10-31T07:13:10.605Z,94.61
2022-10-31T07:13:43.070Z,94.32
2022-10-31T07:14:14.947Z,93.88
2022-10-31T07:14:47.356Z,93.87
2022-10-31T07:15:19.263Z,94.07
2022-10-31T07:15:52.064Z,94.15
2022-10-31T07:16:23.978Z,94.22
2022-10-31T07:16:55.845Z,93.61
2022-10-31T07:17:30.020Z,92.81
2022-10-31T07:18:05.426Z,92.47
2022-10-31T07:18:39.219Z,92.54
2022-10-31T07:19:11.293Z,93.16
2022-10-31T07:19:43.265Z,92.66
2022-10-31T07:20:16.523Z,92.59
2022-10-31T07:20:49.300Z,92.94
2022-10-31T07:21:22.311Z,93.33
2022-10-31T07:21:56.132Z,93.66
2022-10-31T07:22:36.555Z,93.74
2022-10-31T07:23:11.762Z,93.57
2022-10-31T07:23:44.144Z,93.50
2022-10-31T07:24:17.627Z,93.41
2022-10-31T07:24:53.429Z,93.58
2022-10-31T07:25:29.635Z,93.76
2022-10-31T07:26:05.878Z,93.81
2022-10-31T07:26:37.920Z,93.78
2022-10-31T07:27:09.866Z,93.72
2022-10-31T07:27:43.880Z,93.64
2022-10-31T07:28:16.056Z,93.81
2022-10-31T07:28:53.617Z,93.37
2022-10-31T07:29:25.889Z,92.98
2022-10-31T07:29:57.793Z,92.99
2022-10-31T07:30:32.060Z,93.12
2022-10-31T07:31:03.988Z,93.18
2022-10-31T07:31:35.969Z,93.00
2022-10-31T07:32:08.593Z,92.95
2022-10-31T07:32:43.092Z,93.09
2022-10-31T07:33:14.969Z,93.26
2022-10-31T07:33:48.688Z,93.27
2022-10-31T07:34:22.094Z,93.23
2022-10-31T07:34:57.074Z,93.18
2022-10-31T07:35:30.562Z,93.43
2022-10-31T07:36:02.535Z,92.86